Saint-Germain-De-Grantham, Canada
Current Conditions -  °F | °C
As of 2:00 PM on Thursday 30 Oct 2014 (Local Time) from CYRQ Reporting Station
Overcast Overcast  
Wind Chill: 43°   Ceiling: 4300
Heat Index: 46°   Visibility: 9mi
Dew Point: 32°   Wind: 7mph
Humidity: 57%   Direction: 240°WSW
Pressure: 29.93"   Gusts: NA
Location:  45.83°N, 72.57°W
Report Text: CYRQ 301800Z AUTO 24006KT 9SM OVC043 08/00 A2993 RMK SLP136
Loading
Personal Weather Stations






























Interactive Weather Map
Tropical Storm Tracking
New forecast layout! Learn more

10-Day Weather Forecast

Advertisements
Track Severe Weather on mobile